Time;durP1;ratioP1;P1;durP2;ratioP2;P2;SDS_P1;SDS_P2;PMS_P1;PMS_P2;Temp;Humidity;BMP_temperature;BMP_pressure;BME280_temperature;BME280_humidity;BME280_pressure;Samples;Min_cycle;Max_cycle;Signal;HPM_P1;HPM_P2
2022/08/27 00:01:42;;;;;;;1.85;1.20;;;17.00;96.80;;;;;;4180783;28;20048;-84
2022/08/27 00:03:43;;;;;;;5.05;1.40;;;17.00;96.80;;;;;;4181770;28;20109;-84
2022/08/27 00:05:45;;;;;;;2.20;1.20;;;16.90;96.80;;;;;;4180673;28;20055;-85
2022/08/27 00:07:46;;;;;;;4.05;1.40;;;16.90;96.80;;;;;;4182337;28;20055;-85
2022/08/27 00:09:47;;;;;;;7.55;1.38;;;16.90;96.80;;;;;;4183542;28;20041;-85
2022/08/27 00:11:49;;;;;;;3.40;0.90;;;16.90;96.90;;;;;;4183363;28;20438;-84
2022/08/27 00:13:50;;;;;;;2.75;1.10;;;16.90;96.90;;;;;;4182269;28;20049;-84
2022/08/27 00:15:51;;;;;;;7.32;1.10;;;16.90;96.90;;;;;;4183157;28;20048;-85
2022/08/27 00:17:52;;;;;;;5.93;1.00;;;16.90;97.00;;;;;;4182864;28;20045;-85
2022/08/27 00:19:53;;;;;;;2.75;1.27;;;16.90;97.00;;;;;;4181610;28;20469;-85
2022/08/27 00:21:54;;;;;;;3.22;1.10;;;16.80;96.90;;;;;;4183174;28;20041;-85
2022/08/27 00:23:55;;;;;;;4.20;1.00;;;16.90;97.00;;;;;;4182384;28;20099;-85
2022/08/27 00:25:58;;;;;;;2.30;1.55;;;16.80;97.00;;;;;;4182626;28;20044;-85
2022/08/27 00:27:58;;;;;;;4.90;1.45;;;16.80;97.00;;;;;;4183194;28;20376;-84
2022/08/27 00:29:59;;;;;;;8.82;1.30;;;16.80;97.10;;;;;;4181590;28;20102;-85
2022/08/27 00:32:00;;;;;;;5.30;0.95;;;16.80;97.10;;;;;;4181756;28;20051;-85
2022/08/27 00:34:01;;;;;;;3.75;1.20;;;16.80;97.10;;;;;;4182579;28;20492;-85
2022/08/27 00:36:03;;;;;;;3.58;1.20;;;16.70;97.00;;;;;;4181532;28;20487;-85
2022/08/27 00:38:05;;;;;;;5.40;1.00;;;16.70;97.10;;;;;;4181548;28;20077;-85
2022/08/27 00:40:10;;;;;;;4.82;1.33;;;16.70;97.10;;;;;;4181775;28;20048;-85
2022/08/27 00:42:10;;;;;;;5.55;1.25;;;16.70;97.20;;;;;;4181908;28;20056;-85
2022/08/27 00:44:12;;;;;;;4.65;1.23;;;16.70;97.20;;;;;;4181595;28;20083;-85
2022/08/27 00:46:21;;;;;;;3.17;1.10;;;16.60;97.20;;;;;;4182703;28;20045;-85
2022/08/27 00:48:25;;;;;;;1.60;1.00;;;16.60;97.30;;;;;;4164493;28;20042;-85
2022/08/27 00:50:36;;;;;;;2.63;1.40;;;16.60;97.30;;;;;;4182590;28;20552;-85
2022/08/27 00:52:45;;;;;;;2.53;0.95;;;16.60;97.40;;;;;;4181251;28;20083;-84
2022/08/27 00:54:47;;;;;;;4.65;1.52;;;16.60;97.40;;;;;;4182999;28;20076;-85
2022/08/27 00:56:48;;;;;;;3.72;1.20;;;16.50;97.40;;;;;;4181787;28;20037;-85
2022/08/27 00:58:52;;;;;;;3.20;0.98;;;16.50;97.50;;;;;;4179957;28;20049;-85
2022/08/27 01:00:54;;;;;;;4.93;1.02;;;16.40;97.50;;;;;;4180250;28;20037;-85
2022/08/27 01:02:55;;;;;;;4.15;1.40;;;16.40;97.50;;;;;;4182847;28;20061;-84
2022/08/27 01:05:03;;;;;;;5.90;1.33;;;16.30;97.60;;;;;;4180864;28;20115;-85
2022/08/27 01:07:04;;;;;;;3.28;1.30;;;16.40;97.80;;;;;;4180601;28;20053;-85
2022/08/27 01:09:12;;;;;;;3.88;1.80;;;16.30;97.80;;;;;;4182425;28;20383;-86
2022/08/27 01:11:13;;;;;;;5.50;1.20;;;16.30;97.90;;;;;;4181273;28;20589;-85
2022/08/27 01:13:16;;;;;;;5.95;1.60;;;16.30;97.90;;;;;;4180762;28;20091;-85
2022/08/27 01:15:18;;;;;;;3.83;0.80;;;16.30;97.90;;;;;;4181506;28;20049;-84
2022/08/27 01:17:19;;;;;;;3.35;1.35;;;16.30;97.90;;;;;;4181734;28;20491;-84
2022/08/27 01:19:47;;;;;;;6.18;1.20;;;16.20;97.90;;;;;;4165596;28;20059;-84
2022/08/27 01:22:02;;;;;;;4.10;1.45;;;16.20;98.00;;;;;;4181685;28;20537;-83
2022/08/27 01:24:27;;;;;;;3.80;1.10;;;16.10;98.00;;;;;;4184945;28;20398;-84
2022/08/27 01:26:30;;;;;;;3.45;1.20;;;16.10;98.10;;;;;;4185065;28;20056;-83
2022/08/27 01:28:33;;;;;;;3.08;1.52;;;16.10;98.10;;;;;;4184409;28;20102;-84
2022/08/27 01:30:35;;;;;;;4.93;1.42;;;16.00;98.20;;;;;;4184220;28;20124;-84
2022/08/27 01:32:37;;;;;;;5.75;1.23;;;16.00;98.20;;;;;;4184921;28;20045;-84
2022/08/27 01:34:38;;;;;;;3.42;1.10;;;16.00;98.30;;;;;;4185293;28;20064;-83
2022/08/27 01:36:39;;;;;;;7.68;1.10;;;15.90;98.30;;;;;;4185023;28;20044;-83
2022/08/27 01:38:39;;;;;;;7.03;1.15;;;15.90;98.40;;;;;;4182549;28;20080;-84
2022/08/27 01:40:40;;;;;;;6.85;1.35;;;15.90;98.80;;;;;;4184579;28;20469;-83
2022/08/27 01:42:44;;;;;;;3.20;1.40;;;15.80;98.50;;;;;;4183321;28;20077;-83
2022/08/27 01:44:52;;;;;;;4.35;1.00;;;15.80;98.70;;;;;;4182888;28;20075;-83
2022/08/27 01:46:54;;;;;;;2.15;1.13;;;15.70;98.70;;;;;;4182256;28;20126;-83
2022/08/27 01:48:55;;;;;;;5.45;1.20;;;15.70;98.70;;;;;;4164347;28;20058;-83
2022/08/27 01:50:56;;;;;;;4.18;1.25;;;15.70;98.80;;;;;;4183239;28;20517;-83
2022/08/27 01:53:02;;;;;;;4.82;1.05;;;15.70;98.80;;;;;;4181628;28;20119;-83
2022/08/27 01:55:05;;;;;;;4.43;1.35;;;15.60;98.90;;;;;;4164516;28;20041;-84
2022/08/27 01:57:08;;;;;;;2.70;1.10;;;15.60;98.90;;;;;;4165121;28;20103;-84
2022/08/27 01:59:09;;;;;;;7.53;1.20;;;15.60;98.90;;;;;;4182399;28;20095;-84
2022/08/27 02:01:13;;;;;;;4.32;0.93;;;15.50;99.00;;;;;;4182885;28;20049;-83
2022/08/27 02:03:17;;;;;;;4.97;1.52;;;15.50;99.10;;;;;;4182982;28;20072;-84
2022/08/27 02:05:19;;;;;;;1.55;0.98;;;15.50;99.10;;;;;;4165601;28;20461;-83
2022/08/27 02:07:20;;;;;;;7.68;1.80;;;15.50;99.10;;;;;;4182516;28;20056;-83
2022/08/27 02:09:21;;;;;;;2.33;1.10;;;15.50;99.10;;;;;;4180285;28;20046;-83
2022/08/27 02:11:22;;;;;;;3.13;1.30;;;15.50;99.20;;;;;;4183159;28;20052;-84
2022/08/27 02:13:24;;;;;;;3.60;1.48;;;15.50;99.30;;;;;;4185075;28;20041;-84
2022/08/27 02:15:25;;;;;;;5.57;1.67;;;15.50;99.30;;;;;;4167190;28;20050;-83
2022/08/27 02:17:28;;;;;;;2.78;1.00;;;15.40;99.30;;;;;;4184090;28;20087;-84
2022/08/27 02:19:29;;;;;;;4.78;1.30;;;15.40;99.20;;;;;;4184724;28;20052;-84
2022/08/27 02:21:31;;;;;;;4.07;1.20;;;15.40;99.20;;;;;;4166900;28;20494;-84
2022/08/27 02:23:33;;;;;;;5.53;1.23;;;15.40;99.20;;;;;;4185010;28;20040;-84
2022/08/27 02:25:34;;;;;;;3.25;1.48;;;15.40;99.30;;;;;;4185398;28;20053;-83
2022/08/27 02:27:35;;;;;;;5.18;1.15;;;15.30;99.40;;;;;;4185535;28;20045;-84
2022/08/27 02:29:37;;;;;;;3.78;1.55;;;15.30;99.40;;;;;;4186213;28;20124;-85
2022/08/27 02:31:40;;;;;;;2.95;1.23;;;15.30;99.40;;;;;;4186204;28;20467;-84
2022/08/27 02:33:41;;;;;;;4.50;1.30;;;15.30;99.50;;;;;;4185088;28;20096;-84
2022/08/27 02:35:43;;;;;;;3.83;1.00;;;15.30;99.50;;;;;;4185925;28;20052;-84
2022/08/27 02:37:44;;;;;;;5.28;0.88;;;15.20;99.50;;;;;;4186216;28;20041;-83
2022/08/27 02:39:46;;;;;;;3.78;1.10;;;15.20;99.50;;;;;;4185798;28;20544;-85
2022/08/27 02:41:47;;;;;;;6.25;1.10;;;15.20;99.50;;;;;;4168266;28;20128;-84
2022/08/27 02:43:49;;;;;;;2.33;1.17;;;15.20;99.50;;;;;;4185166;28;20045;-84
2022/08/27 02:45:50;;;;;;;2.38;1.15;;;15.20;99.60;;;;;;4168211;28;20105;-83
2022/08/27 02:47:52;;;;;;;3.15;1.27;;;15.20;99.70;;;;;;4186531;28;20061;-83
2022/08/27 02:49:55;;;;;;;3.55;1.80;;;15.20;99.70;;;;;;4185501;28;20090;-84
2022/08/27 02:51:57;;;;;;;5.20;1.13;;;15.20;99.80;;;;;;4185807;28;20499;-83
2022/08/27 02:53:59;;;;;;;5.40;1.48;;;15.20;99.80;;;;;;4184648;28;20047;-84
2022/08/27 02:55:59;;;;;;;2.97;1.17;;;15.10;99.80;;;;;;4166641;28;20045;-83
2022/08/27 02:58:00;;;;;;;1.92;1.10;;;15.20;99.90;;;;;;4184166;28;20067;-84
2022/08/27 03:00:02;;;;;;;4.57;1.75;;;15.20;99.90;;;;;;4184448;28;20055;-84
2022/08/27 03:02:03;;;;;;;3.45;1.38;;;15.10;99.90;;;;;;4184502;28;20045;-84
2022/08/27 03:04:04;;;;;;;2.22;1.23;;;15.10;99.90;;;;;;4183061;28;20092;-84
2022/08/27 03:06:05;;;;;;;2.60;1.00;;;15.10;99.90;;;;;;4184120;28;20123;-83
2022/08/27 03:08:06;;;;;;;2.55;1.40;;;15.10;99.90;;;;;;4184657;28;20037;-84
2022/08/27 03:10:08;;;;;;;6.72;2.13;;;15.10;99.90;;;;;;4184601;28;20040;-83
2022/08/27 03:12:08;;;;;;;3.17;1.20;;;15.10;99.90;;;;;;4184467;28;20045;-84
2022/08/27 03:14:09;;;;;;;5.10;1.48;;;15.10;99.90;;;;;;4184041;28;20045;-84
2022/08/27 03:16:11;;;;;;;5.28;1.35;;;15.10;99.90;;;;;;4184602;28;20044;-83
2022/08/27 03:18:17;;;;;;;4.43;1.50;;;15.10;99.90;;;;;;4182927;28;20044;-84
2022/08/27 03:20:18;;;;;;;2.42;1.10;;;15.20;99.90;;;;;;4184250;28;20037;-83
2022/08/27 03:22:22;;;;;;;4.05;1.40;;;15.20;99.90;;;;;;4182697;28;20469;-84
2022/08/27 03:24:23;;;;;;;2.13;1.00;;;15.20;99.90;;;;;;4167064;28;20128;-86
2022/08/27 03:26:23;;;;;;;2.15;1.10;;;15.20;99.90;;;;;;4167701;28;20060;-85
2022/08/27 03:28:29;;;;;;;6.05;2.17;;;15.20;99.90;;;;;;4184755;28;20045;-84
2022/08/27 03:30:30;;;;;;;1.90;1.17;;;15.20;99.90;;;;;;4165724;28;20084;-83
2022/08/27 03:32:31;;;;;;;4.70;1.10;;;15.20;99.90;;;;;;4182928;28;20045;-85
2022/08/27 03:34:32;;;;;;;4.50;1.15;;;15.20;99.90;;;;;;4183883;28;20079;-84
2022/08/27 03:36:33;;;;;;;2.97;0.95;;;15.20;99.90;;;;;;4165826;28;20466;-84
2022/08/27 03:38:34;;;;;;;7.55;1.50;;;15.20;99.90;;;;;;4166206;28;20037;-84
2022/08/27 03:40:36;;;;;;;3.90;1.35;;;15.20;99.90;;;;;;4166206;28;20084;-84
2022/08/27 03:42:37;;;;;;;4.93;1.48;;;15.30;99.90;;;;;;4184169;28;20562;-84
2022/08/27 03:44:38;;;;;;;6.75;1.13;;;15.30;99.90;;;;;;4183722;28;20529;-84
2022/08/27 03:46:39;;;;;;;5.90;1.05;;;15.30;99.90;;;;;;4183669;28;20045;-84
2022/08/27 03:48:40;;;;;;;7.32;1.15;;;15.30;99.90;;;;;;4182624;28;20048;-84
2022/08/27 03:50:43;;;;;;;8.95;1.35;;;15.30;99.90;;;;;;4182995;28;20438;-84
2022/08/27 03:52:43;;;;;;;3.53;1.25;;;15.30;99.90;;;;;;4183496;28;20499;-84
2022/08/27 03:54:44;;;;;;;4.45;1.27;;;15.30;99.90;;;;;;4183391;28;20102;-84
2022/08/27 03:56:45;;;;;;;3.85;1.00;;;15.30;99.90;;;;;;4182385;28;20041;-84
2022/08/27 03:58:46;;;;;;;3.30;1.17;;;15.30;99.90;;;;;;4182038;28;20078;-84
2022/08/27 04:00:48;;;;;;;5.25;1.10;;;15.30;99.90;;;;;;4183559;28;20490;-84
2022/08/27 04:02:50;;;;;;;2.42;1.45;;;15.20;99.90;;;;;;4181779;28;20092;-84
2022/08/27 04:04:51;;;;;;;4.22;1.15;;;15.30;99.90;;;;;;4182387;28;20061;-84
2022/08/27 04:06:52;;;;;;;4.50;1.13;;;15.30;99.90;;;;;;4183447;28;20115;-84
2022/08/27 04:08:52;;;;;;;2.70;1.05;;;15.20;99.90;;;;;;4181788;28;20045;-84
2022/08/27 04:10:55;;;;;;;4.55;1.30;;;15.20;99.90;;;;;;4165828;28;20128;-84
2022/08/27 04:12:56;;;;;;;4.95;1.25;;;15.10;99.90;;;;;;4165821;28;20107;-83
2022/08/27 04:14:57;;;;;;;3.05;0.85;;;15.10;99.90;;;;;;4164971;28;20128;-85
2022/08/27 04:16:58;;;;;;;4.25;1.13;;;15.10;99.90;;;;;;4183506;28;20048;-84
2022/08/27 04:18:59;;;;;;;4.88;1.38;;;15.00;99.90;;;;;;4183682;28;20040;-84
2022/08/27 04:21:07;;;;;;;3.15;1.08;;;15.00;99.90;;;;;;4182821;28;20045;-84
2022/08/27 04:23:08;;;;;;;6.13;1.30;;;15.00;99.90;;;;;;4184021;28;20045;-84
2022/08/27 04:25:09;;;;;;;2.50;1.10;;;15.00;99.90;;;;;;4183467;28;20047;-83
2022/08/27 04:27:10;;;;;;;2.47;1.02;;;14.90;99.90;;;;;;4184479;28;20075;-84
2022/08/27 04:29:11;;;;;;;3.83;1.83;;;14.90;99.90;;;;;;4183330;28;20120;-84
2022/08/27 04:31:13;;;;;;;4.05;1.20;;;14.90;99.90;;;;;;4183624;28;20139;-85
2022/08/27 04:33:14;;;;;;;9.85;1.80;;;14.90;99.90;;;;;;4185494;28;20116;-85
2022/08/27 04:35:16;;;;;;;7.45;1.48;;;14.80;99.90;;;;;;4192865;28;20045;-85
2022/08/27 04:37:17;;;;;;;2.50;0.95;;;14.80;99.90;;;;;;4173157;28;20053;-84
2022/08/27 04:39:19;;;;;;;4.38;1.13;;;14.80;99.90;;;;;;4190092;28;20045;-84
2022/08/27 04:41:25;;;;;;;1.35;1.10;;;14.80;99.90;;;;;;4186474;28;20049;-84
2022/08/27 04:43:27;;;;;;;1.85;0.90;;;14.80;99.90;;;;;;4184959;28;20056;-84
2022/08/27 04:45:27;;;;;;;5.22;1.35;;;14.80;99.90;;;;;;4182488;28;20052;-84
2022/08/27 04:47:29;;;;;;;5.10;1.38;;;14.90;99.90;;;;;;4184333;28;20041;-84
2022/08/27 04:49:31;;;;;;;3.83;1.45;;;14.90;99.90;;;;;;4182500;28;20064;-84
2022/08/27 04:51:33;;;;;;;8.30;1.30;;;14.90;99.90;;;;;;4179230;28;20546;-84
2022/08/27 04:53:34;;;;;;;11.38;1.58;;;14.90;99.90;;;;;;4182364;28;20041;-84
2022/08/27 04:55:47;;;;;;;4.15;1.30;;;15.00;99.90;;;;;;4191194;28;20075;-85
2022/08/27 04:57:48;;;;;;;6.57;1.67;;;15.00;99.90;;;;;;4184327;28;20048;-83
2022/08/27 04:59:50;;;;;;;6.07;1.10;;;15.10;99.90;;;;;;4182852;28;20055;-86
2022/08/27 05:01:51;;;;;;;3.80;1.50;;;15.10;99.90;;;;;;4183150;28;20041;-85
2022/08/27 05:03:53;;;;;;;5.85;1.52;;;15.10;99.90;;;;;;4180738;28;20143;-85
2022/08/27 05:06:00;;;;;;;3.58;1.20;;;15.20;99.90;;;;;;4181537;28;20053;-84
2022/08/27 05:08:02;;;;;;;1.90;1.00;;;15.30;99.90;;;;;;4181505;28;20082;-84
2022/08/27 05:10:02;;;;;;;4.68;1.23;;;15.30;99.90;;;;;;4181082;28;20079;-85
2022/08/27 05:12:03;;;;;;;4.28;1.63;;;15.40;99.90;;;;;;4182333;28;20048;-85
2022/08/27 05:14:06;;;;;;;3.28;1.23;;;15.40;99.90;;;;;;4164736;28;20466;-85
2022/08/27 05:16:17;;;;;;;3.97;0.80;;;15.50;99.90;;;;;;4182343;28;20045;-84
2022/08/27 05:18:18;;;;;;;3.60;1.40;;;15.50;99.90;;;;;;4181225;28;20419;-85
2022/08/27 05:20:19;;;;;;;4.75;1.20;;;15.60;99.90;;;;;;4180223;28;20045;-84
2022/08/27 05:22:20;;;;;;;4.45;1.00;;;15.60;99.90;;;;;;4164210;28;20091;-85
2022/08/27 05:24:21;;;;;;;3.42;1.00;;;15.70;99.90;;;;;;4164477;28;20517;-85
2022/08/27 05:26:22;;;;;;;4.28;1.10;;;15.70;99.90;;;;;;4180451;28;20486;-85
2022/08/27 05:28:25;;;;;;;5.90;1.48;;;15.80;99.90;;;;;;4180222;28;20033;-85
2022/08/27 05:30:26;;;;;;;3.30;1.20;;;15.80;99.90;;;;;;4181889;28;20517;-86
2022/08/27 05:32:27;;;;;;;2.00;1.33;;;15.90;99.90;;;;;;4181990;28;20041;-85
2022/08/27 05:34:29;;;;;;;4.63;1.10;;;15.90;99.90;;;;;;4182105;28;20573;-85
2022/08/27 05:36:33;;;;;;;5.10;1.98;;;15.90;99.90;;;;;;4180218;28;20049;-85
2022/08/27 05:38:34;;;;;;;9.05;2.17;;;16.00;99.90;;;;;;4180745;28;20597;-83
2022/08/27 05:40:35;;;;;;;5.28;1.13;;;16.00;99.90;;;;;;4181008;28;20052;-86
2022/08/27 05:42:36;;;;;;;3.03;1.30;;;16.10;99.90;;;;;;4181651;28;20052;-86
2022/08/27 05:44:36;;;;;;;4.55;1.80;;;16.10;99.90;;;;;;4180531;28;20515;-87
2022/08/27 05:46:39;;;;;;;5.70;1.30;;;16.10;99.90;;;;;;4180999;28;20120;-88
2022/08/27 05:48:41;;;;;;;5.78;1.23;;;16.10;99.90;;;;;;4181285;28;20069;-87
2022/08/27 05:50:43;;;;;;;12.10;2.47;;;16.20;99.90;;;;;;4164915;28;20060;-88
2022/08/27 05:52:44;;;;;;;4.10;1.23;;;16.20;99.90;;;;;;4182765;28;20091;-88
2022/08/27 05:54:45;;;;;;;9.07;1.42;;;16.20;99.90;;;;;;4181749;28;20037;-88
2022/08/27 05:56:48;;;;;;;4.95;1.48;;;16.30;99.90;;;;;;4182648;28;20072;-88
2022/08/27 06:01:08;;;;;;;2.55;1.77;;;16.40;99.90;;;;;;4181296;28;20077;-88
2022/08/27 06:03:10;;;;;;;3.42;1.05;;;16.50;99.90;;;;;;4181874;28;20045;-88
2022/08/27 06:05:11;;;;;;;4.07;1.27;;;16.50;99.90;;;;;;4179894;28;20091;-88
2022/08/27 06:07:12;;;;;;;3.88;1.08;;;16.50;99.90;;;;;;4180585;28;20474;-88
2022/08/27 06:09:17;;;;;;;2.28;1.02;;;16.60;99.90;;;;;;4164696;28;20049;-88
2022/08/27 06:11:20;;;;;;;4.65;1.20;;;16.60;99.90;;;;;;4182350;28;20444;-88
2022/08/27 06:13:23;;;;;;;2.28;1.02;;;16.70;99.90;;;;;;4180545;28;20053;-88
2022/08/27 06:15:24;;;;;;;6.03;1.30;;;16.70;99.90;;;;;;4182244;28;20052;-88
2022/08/27 06:17:24;;;;;;;3.42;1.67;;;16.80;99.90;;;;;;4182142;28;20131;-88
2022/08/27 06:19:26;;;;;;;5.78;1.00;;;16.80;99.90;;;;;;4180229;28;20112;-88
2022/08/27 06:21:27;;;;;;;5.50;1.20;;;16.90;99.90;;;;;;4181116;28;20482;-88
2022/08/27 06:23:28;;;;;;;5.47;1.02;;;17.00;99.90;;;;;;4181053;28;20088;-88
2022/08/27 06:25:31;;;;;;;5.25;0.90;;;17.10;99.90;;;;;;4181327;28;20037;-88
2022/08/27 06:27:32;;;;;;;5.70;1.48;;;17.10;99.90;;;;;;4180351;28;20044;-86
2022/08/27 06:29:33;;;;;;;5.10;1.30;;;17.20;99.90;;;;;;4164752;28;20042;-88
2022/08/27 06:31:35;;;;;;;4.78;1.27;;;17.30;99.90;;;;;;4182059;28;20037;-88
2022/08/27 06:33:36;;;;;;;2.45;0.98;;;17.30;99.90;;;;;;4164332;28;20050;-88
2022/08/27 06:35:37;;;;;;;3.85;1.20;;;17.10;99.90;;;;;;4163668;28;20049;-87
2022/08/27 06:37:39;;;;;;;5.25;1.40;;;17.50;99.90;;;;;;4181780;28;20106;-87
2022/08/27 06:39:40;;;;;;;6.75;0.88;;;17.60;99.90;;;;;;4179684;28;20052;-86
2022/08/27 06:41:42;;;;;;;8.18;1.15;;;17.60;99.90;;;;;;4180146;28;20045;-85
2022/08/27 06:43:44;;;;;;;5.65;1.58;;;17.70;99.90;;;;;;4181564;28;20062;-84
2022/08/27 06:45:45;;;;;;;6.50;1.30;;;17.80;99.90;;;;;;4181502;28;20605;-85
2022/08/27 06:47:46;;;;;;;4.55;1.08;;;17.90;99.90;;;;;;4181599;28;20052;-85
2022/08/27 06:49:47;;;;;;;4.25;1.10;;;17.80;99.90;;;;;;4181078;28;20048;-85
2022/08/27 06:51:47;;;;;;;4.55;1.00;;;18.10;99.90;;;;;;4180339;28;20040;-85
2022/08/27 06:53:48;;;;;;;5.63;1.60;;;18.20;99.90;;;;;;4180640;28;20179;-85
2022/08/27 06:55:49;;;;;;;6.63;2.33;;;18.20;99.90;;;;;;4180317;28;20029;-85
2022/08/27 06:57:50;;;;;;;5.88;1.15;;;18.30;99.90;;;;;;4189805;28;20103;-85
2022/08/27 06:59:51;;;;;;;5.50;1.00;;;18.50;99.90;;;;;;4200208;28;20048;-86
2022/08/27 07:01:52;;;;;;;3.22;0.65;;;18.70;99.90;;;;;;4201170;28;20047;-85
2022/08/27 07:03:56;;;;;;;7.43;1.10;;;18.90;99.90;;;;;;4202817;28;20040;-85
2022/08/27 07:06:04;;;;;;;9.00;1.83;;;19.00;99.80;;;;;;4182941;28;20103;-86
2022/08/27 07:08:06;;;;;;;5.72;1.42;;;19.20;99.20;;;;;;4156164;28;20113;-86
2022/08/27 07:10:08;;;;;;;4.05;0.70;;;19.40;98.90;;;;;;4167431;28;20045;-85
2022/08/27 07:12:08;;;;;;;2.08;0.55;;;19.40;98.50;;;;;;4165660;28;20041;-86
2022/08/27 07:14:10;;;;;;;7.53;1.15;;;19.50;98.30;;;;;;4166972;28;20107;-87
2022/08/27 07:16:14;;;;;;;5.15;1.02;;;19.40;98.10;;;;;;4149171;28;20152;-88
2022/08/27 07:18:14;;;;;;;9.15;1.98;;;19.40;98.00;;;;;;4166484;28;20049;-86
2022/08/27 07:20:17;;;;;;;7.45;1.17;;;19.40;98.00;;;;;;4176801;28;20040;-87
2022/08/27 07:22:18;;;;;;;3.25;0.80;;;19.30;97.90;;;;;;4182933;28;20116;-84
2022/08/27 07:24:18;;;;;;;7.78;0.73;;;19.30;97.90;;;;;;4183852;28;20049;-84
2022/08/27 07:26:22;;;;;;;8.65;1.00;;;19.20;97.80;;;;;;4189563;28;20124;-83
2022/08/27 07:28:23;;;;;;;5.93;1.00;;;19.30;97.80;;;;;;4190724;28;20041;-84
2022/08/27 07:30:26;;;;;;;6.57;0.73;;;19.30;97.80;;;;;;4183576;28;20057;-84
2022/08/27 07:32:28;;;;;;;9.55;0.77;;;19.50;97.60;;;;;;4184841;28;20415;-84
2022/08/27 07:34:28;;;;;;;4.65;1.40;;;19.60;97.30;;;;;;4186773;28;20052;-85
2022/08/27 07:36:29;;;;;;;6.45;1.05;;;19.70;97.00;;;;;;4181694;28;20053;-85
2022/08/27 07:38:31;;;;;;;6.95;1.58;;;19.80;96.70;;;;;;4183262;28;20045;-85
2022/08/27 07:40:32;;;;;;;4.13;1.63;;;19.80;96.40;;;;;;4180792;28;20041;-85
2022/08/27 07:44:52;;;;;;;;;;;19.60;96.20;;;;;;4183395;28;20360;-85
2022/08/27 07:46:57;;;;;;;4.90;0.90;;;19.70;95.60;;;;;;4178224;28;19974;-85
2022/08/27 07:48:58;;;;;;;8.82;1.05;;;19.70;96.20;;;;;;4178665;28;20053;-85
2022/08/27 07:51:03;;;;;;;6.80;0.93;;;19.70;96.10;;;;;;4185281;28;20048;-85
2022/08/27 07:53:06;;;;;;;4.97;0.80;;;19.70;95.90;;;;;;4183627;28;20040;-86
2022/08/27 07:55:07;;;;;;;8.10;1.00;;;19.60;95.80;;;;;;4171856;28;20044;-85
2022/08/27 07:57:10;;;;;;;8.13;1.30;;;19.70;95.70;;;;;;4178523;28;20033;-85
2022/08/27 07:59:12;;;;;;;4.05;0.82;;;19.70;95.60;;;;;;4183027;28;20044;-85
2022/08/27 08:01:13;;;;;;;5.78;1.05;;;19.70;95.40;;;;;;4186546;28;20036;-85
2022/08/27 08:03:14;;;;;;;3.40;0.95;;;19.70;95.20;;;;;;4183355;28;20050;-85
2022/08/27 08:05:15;;;;;;;9.05;0.85;;;19.70;94.90;;;;;;4182767;28;20040;-84
2022/08/27 08:07:16;;;;;;;6.60;1.02;;;19.70;94.80;;;;;;4183044;28;20112;-85
2022/08/27 08:09:17;;;;;;;4.70;0.80;;;19.70;94.70;;;;;;4184676;28;20557;-85
2022/08/27 08:11:23;;;;;;;7.78;1.00;;;19.70;94.80;;;;;;4183855;28;20514;-85
2022/08/27 08:13:25;;;;;;;6.68;0.80;;;19.70;94.80;;;;;;4183198;28;20407;-85
2022/08/27 08:15:27;;;;;;;8.88;1.10;;;19.70;94.70;;;;;;4185779;28;20045;-85
2022/08/27 08:17:33;;;;;;;4.78;0.88;;;19.80;94.40;;;;;;4184188;28;20047;-86
2022/08/27 08:19:33;;;;;;;5.78;0.85;;;19.80;94.30;;;;;;4183863;28;20049;-85
2022/08/27 08:21:37;;;;;;;6.30;1.40;;;19.80;94.40;;;;;;4183867;28;20372;-85
2022/08/27 08:23:40;;;;;;;3.83;0.98;;;19.90;94.00;;;;;;4182737;28;20045;-85
2022/08/27 08:25:41;;;;;;;6.55;0.90;;;20.00;94.30;;;;;;4183654;28;20513;-86
2022/08/27 08:27:42;;;;;;;3.35;0.68;;;20.10;93.90;;;;;;4184038;28;20478;-86
2022/08/27 08:29:44;;;;;;;4.28;1.48;;;20.10;93.80;;;;;;4183149;28;20142;-86
2022/08/27 08:31:45;;;;;;;4.57;1.13;;;20.10;93.70;;;;;;4188230;28;20049;-86
2022/08/27 08:33:47;;;;;;;6.65;0.90;;;20.10;93.50;;;;;;4192978;28;20051;-85
2022/08/27 08:35:48;;;;;;;4.95;0.80;;;20.20;93.50;;;;;;4182386;28;20490;-86
2022/08/27 08:37:49;;;;;;;5.95;1.48;;;20.20;93.30;;;;;;4183616;28;20128;-86
2022/08/27 08:39:51;;;;;;;5.30;0.88;;;20.20;93.40;;;;;;4182487;28;20494;-86
2022/08/27 08:41:55;;;;;;;4.72;0.90;;;20.20;93.40;;;;;;4185750;28;20041;-86
2022/08/27 08:43:58;;;;;;;6.07;1.13;;;20.30;93.30;;;;;;4183367;28;20083;-86
2022/08/27 08:46:21;;;;;;;5.53;0.88;;;20.50;93.20;;;;;;4184155;28;20096;-86
2022/08/27 08:48:25;;;;;;;7.13;1.05;;;20.90;92.90;;;;;;4191925;28;20041;-86
2022/08/27 08:50:41;;;;;;;3.80;0.82;;;21.60;92.40;;;;;;4193629;28;20409;-85
2022/08/27 08:53:10;;;;;;;1.55;0.63;;;22.00;91.50;;;;;;4182698;28;20041;-85
2022/08/27 08:55:35;;;;;;;6.90;0.90;;;22.10;90.20;;;;;;4180758;28;20064;-85
2022/08/27 08:58:01;;;;;;;7.63;0.93;;;22.10;90.20;;;;;;4182160;28;20059;-85
2022/08/27 09:00:12;;;;;;;5.07;0.70;;;21.90;90.60;;;;;;4182335;28;20048;-85
2022/08/27 09:02:14;;;;;;;3.13;0.57;;;21.80;90.30;;;;;;4181684;28;20045;-85
2022/08/27 09:04:15;;;;;;;3.67;0.95;;;21.70;90.50;;;;;;4182511;28;20155;-85
2022/08/27 09:06:35;;;;;;;10.13;1.35;;;21.60;90.30;;;;;;4182610;28;20122;-85
2022/08/27 09:08:39;;;;;;;4.00;0.80;;;21.40;89.40;;;;;;4182546;28;20037;-84
2022/08/27 09:10:51;;;;;;;3.60;0.65;;;21.30;90.20;;;;;;4182486;28;20470;-84
2022/08/27 09:12:57;;;;;;;3.88;0.70;;;21.20;89.90;;;;;;4181846;28;20037;-84
2022/08/27 09:15:11;;;;;;;4.70;0.75;;;21.20;90.10;;;;;;4182202;28;20048;-85
2022/08/27 09:17:12;;;;;;;4.88;0.77;;;21.10;89.40;;;;;;4182186;28;20045;-85
2022/08/27 09:19:13;;;;;;;4.65;0.75;;;21.00;89.50;;;;;;4181820;28;20470;-85
2022/08/27 09:21:52;;;;;;;7.05;0.80;;;21.00;89.50;;;;;;4181349;28;20116;-85
2022/08/27 09:24:37;;;;;;;7.45;1.35;;;21.00;89.60;;;;;;4181071;28;20491;-84
2022/08/27 09:26:41;;;;;;;9.52;1.73;;;21.30;90.10;;;;;;4180392;28;20045;-85
2022/08/27 09:31:07;;;;;;;4.10;0.95;;;22.60;89.80;;;;;;4172587;28;20072;-85
2022/08/27 09:33:07;;;;;;;5.30;0.82;;;23.00;88.40;;;;;;4180871;28;20052;-85
2022/08/27 09:35:11;;;;;;;6.03;0.70;;;23.00;87.70;;;;;;4182092;28;20187;-84
2022/08/27 09:37:26;;;;;;;5.88;0.70;;;23.00;87.00;;;;;;4180835;28;20569;-84
2022/08/27 09:39:53;;;;;;;4.93;0.77;;;22.90;86.80;;;;;;4182755;28;20041;-85
2022/08/27 09:41:54;;;;;;;4.05;0.65;;;22.90;86.40;;;;;;4181218;28;20048;-85
2022/08/27 09:44:06;;;;;;;5.22;0.68;;;22.90;86.60;;;;;;4180448;28;20418;-84
2022/08/27 09:46:21;;;;;;;5.85;0.75;;;22.90;86.10;;;;;;4181820;28;20045;-84
2022/08/27 09:48:27;;;;;;;3.47;0.80;;;22.80;85.20;;;;;;4181619;28;20049;-84
2022/08/27 09:50:36;;;;;;;5.20;0.68;;;22.60;85.50;;;;;;4182495;28;20536;-84
2022/08/27 09:52:54;;;;;;;6.80;1.23;;;22.50;85.40;;;;;;4180795;28;20056;-84
2022/08/27 09:54:55;;;;;;;3.80;0.95;;;22.40;85.10;;;;;;4182279;28;20508;-85
2022/08/27 09:56:57;;;;;;;4.35;0.70;;;22.30;85.60;;;;;;4181829;28;20037;-84
2022/08/27 09:59:21;;;;;;;5.43;0.60;;;22.20;85.50;;;;;;4193571;28;20406;-85
2022/08/27 10:01:31;;;;;;;7.35;0.70;;;22.20;84.20;;;;;;4182706;28;20040;-85
2022/08/27 10:03:32;;;;;;;4.13;0.70;;;22.20;85.10;;;;;;4173739;28;20060;-85
2022/08/27 10:05:49;;;;;;;5.85;1.00;;;22.10;85.30;;;;;;4185360;28;20045;-84
2022/08/27 10:08:00;;;;;;;9.27;0.80;;;22.10;84.50;;;;;;4181995;28;20136;-85
2022/08/27 10:10:26;;;;;;;3.47;0.77;;;21.90;84.20;;;;;;4181488;28;20106;-85
2022/08/27 10:12:44;;;;;;;6.15;0.80;;;21.90;84.10;;;;;;4181586;28;20049;-85
2022/08/27 10:14:53;;;;;;;4.82;0.80;;;21.90;84.50;;;;;;4179968;28;20079;-85
2022/08/27 10:17:29;;;;;;;7.15;0.80;;;21.90;84.60;;;;;;4185360;28;20090;-85
2022/08/27 10:19:59;;;;;;;5.18;0.75;;;22.10;83.60;;;;;;4173945;28;20068;-85
2022/08/27 10:22:37;;;;;;;6.03;0.77;;;22.20;83.30;;;;;;4162311;28;20107;-85
2022/08/27 10:24:47;;;;;;;7.88;1.70;;;22.40;82.20;;;;;;4164054;28;20072;-85
2022/08/27 10:26:56;;;;;;;8.13;0.70;;;23.00;83.00;;;;;;4178977;28;20080;-85
2022/08/27 10:29:39;;;;;;;4.05;0.85;;;23.70;82.10;;;;;;4179239;28;20048;-85
2022/08/27 10:32:07;;;;;;;2.00;0.50;;;24.50;80.50;;;;;;4182012;28;20114;-85
2022/08/27 10:34:15;;;;;;;5.25;1.33;;;25.20;78.40;;;;;;4172273;28;20064;-85
2022/08/27 10:36:20;;;;;;;5.95;1.40;;;25.50;77.00;;;;;;4183992;28;20056;-86
2022/08/27 10:38:36;;;;;;;2.13;0.60;;;25.70;76.30;;;;;;4185264;28;20108;-86
2022/08/27 10:41:00;;;;;;;6.70;1.00;;;25.90;74.60;;;;;;4184596;28;20045;-85
2022/08/27 10:43:14;;;;;;;8.02;0.73;;;25.90;73.50;;;;;;4183012;28;20044;-84
2022/08/27 10:45:40;;;;;;;4.78;0.93;;;25.60;73.90;;;;;;4184940;28;20071;-85
2022/08/27 10:47:51;;;;;;;3.03;0.57;;;25.00;72.70;;;;;;4184887;28;20115;-86
2022/08/27 10:50:02;;;;;;;7.70;0.80;;;24.60;75.40;;;;;;4184665;28;20061;-84
2022/08/27 10:52:16;;;;;;;4.13;0.77;;;24.20;76.10;;;;;;4182922;28;20044;-83
2022/08/27 10:54:34;;;;;;;7.88;1.33;;;23.90;75.70;;;;;;4183218;28;20095;-83
2022/08/27 10:56:54;;;;;;;4.50;0.57;;;23.80;76.40;;;;;;4184657;28;20063;-83